Latest Coastal Weather Observations for Mandurah

IDW60701

Issued at 3:22 am WST Sunday 1 March 2015 (issued every 10 minutes, with the page automatically refreshed every 10 minutes)

About coastal observations | Map of coastal stations | Coastal observations for WA | Marine services | Other Formats
Station Details ID: 009977 Name: MANDURAH Lat: -32.52 Lon: 115.71 Height: 3.0 m
Data from the previous 72 hours. | See also: Recent months at Mandurah
Date/Time
WST
Temp

°C
Wind Pressure Rain
since 9am
mm
Weather Cloud Vis
km
Sea
Height
m
Swell
Dir
 
Speed
knots
Gust
knots
hPa Trend Height
m
Period
s
Dir
01/03:00am 18.3 ESE 7 12 1011.9 - 0.0 - - - - - - -
01/02:30am 18.6 ESE 7 12 1011.7 - 0.0 - - - - - - -
01/02:00am 19.0 ESE 9 14 1011.8 - 0.0 - - - - - - -
01/01:30am 19.4 E 9 14 1011.8 - 0.0 - - - - - - -
01/01:00am 19.9 ESE 10 17 1011.8 - 0.0 - - - - - - -
01/12:30am 20.6 ESE 10 15 1011.9 - 0.0 - - - - - - -
01/12:00am 21.3 E 10 17 1011.9 - 0.0 - - - - - - -
 
Date/Time
WST
Temp

°C
Wind Pressure Rain
since 9am
mm
Weather Cloud Vis
km
Sea
Height
m
Swell
Dir
 
Speed
knots
Gust
knots
hPa Trend Height
m
Period
s
Dir
28/11:30pm 21.9 ESE 9 13 1012.3 - 0.0 - - - - - - -
28/11:00pm 22.2 ESE 8 12 1012.4 - 0.0 - - - - - - -
28/10:30pm 22.3 SE 7 9 1012.5 - 0.0 - - - - - - -
28/10:00pm 22.5 SE 7 10 1012.5 - 0.0 - - - - - - -
28/09:30pm 22.8 SSE 6 9 1012.6 - 0.0 - - - - - - -
28/09:00pm 23.2 SSE 6 8 1012.8 - 0.0 - - - - - - -
28/08:30pm 23.3 S 7 11 1012.5 - 0.0 - - - - - - -
28/08:00pm 23.1 S 9 12 1012.3 - 0.0 - - - - - - -
28/07:30pm 23.1 S 10 15 1012.2 - 0.0 - - - - - - -
28/07:00pm 23.2 S 10 14 1012.1 - 0.0 - - - - - - -
28/06:30pm 23.5 SSW 10 17 1012.1 - 0.0 - - - - - - -
28/06:00pm 23.6 SSW 12 20 1012.0 - 0.0 - - - - - - -
28/05:30pm 24.0 SSW 12 19 1012.0 - 0.0 - - - - - - -
28/05:00pm 24.6 SSW 13 18 1012.2 - 0.0 - - - - - - -
28/04:30pm 25.2 SW 12 17 1012.6 - 0.0 - - - - - - -
28/04:00pm 25.6 SSW 12 17 1012.8 - 0.0 - - - - - - -
28/03:30pm 26.9 WSW 12 17 1013.0 - 0.0 - - - - - - -
28/03:00pm 26.9 SW 12 22 1013.2 - 0.0 - - - - - - -
28/02:30pm 27.1 SW 13 21 1013.6 - 0.0 - - - - - - -
28/02:00pm 29.8 SE 5 9 1014.2 - 0.0 - - - - - - -
28/01:30pm 30.5 E 6 11 1014.5 - 0.0 - - - - - - -
28/01:00pm 29.2 ESE 4 9 1015.0 - 0.0 - - - - - - -
28/12:30pm 27.1 SE 6 10 1015.4 - 0.0 - - - - - - -
28/12:00pm 27.1 E 7 12 1015.7 - 0.0 - - - - - - -
28/11:30am 26.9 ESE 7 12 1016.1 - 0.0 - - - - - - -
28/11:00am 25.4 SE 7 12 1016.5 - 0.0 - - - - - - -
28/10:30am 24.5 SE 8 11 1017.0 - 0.0 - - - - - - -
28/10:00am 24.1 ESE 8 11 1017.2 - 0.0 - - - - - - -
28/09:30am 23.4 ESE 6 10 1017.3 - 0.0 - - - - - - -
28/09:00am 21.4 SE 8 14 1017.4 - 0.0 - - - - - - -
28/08:30am 20.2 SE 10 15 1017.4 - 0.0 - - - - - - -
28/08:00am 19.2 SSE 9 13 1017.3 - 0.0 - - - - - - -
28/07:30am 18.3 SE 9 13 1017.1 - 0.0 - - - - - - -
28/07:00am 18.1 SSE 9 12 1016.6 - 0.0 - - - - - - -
28/06:30am 18.0 SE 9 12 1016.1 - 0.0 - - - - - - -
28/06:00am 18.1 SSE 8 12 1015.9 - 0.0 - - - - - - -
28/05:30am 18.1 SE 9 13 1015.6 - 0.0 - - - - - - -
28/05:00am 18.1 SE 10 14 1015.3 - 0.0 - - - - - - -
28/04:30am 18.4 SSE 11 17 1015.0 - 0.0 - - - - - - -
28/04:00am 18.7 SE 10 14 1014.9 - 0.0 - - - - - - -
28/03:30am 18.9 SE 11 15 1014.7 - 0.0 - - - - - - -
28/03:00am 19.1 SE 10 12 1014.6 - 0.0 - - - - - - -
28/02:30am 19.3 SE 10 14 1014.5 - 0.0 - - - - - - -
28/02:00am 19.5 SE 10 14 1014.4 - 0.0 - - - - - - -
28/01:30am 19.9 SE 10 14 1014.3 - 0.0 - - - - - - -
28/01:00am 20.2 SE 9 13 1014.2 - 0.0 - - - - - - -
28/12:30am 20.6 SE 12 17 1013.7 - 0.0 - - - - - - -
28/12:00am 20.8 SSE 10 14 1013.7 - 0.0 - - - - - - -
 
Date/Time
WST
Temp

°C
Wind Pressure Rain
since 9am
mm
Weather Cloud Vis
km
Sea
Height
m
Swell
Dir
 
Speed
knots
Gust
knots
hPa Trend Height
m
Period
s
Dir
27/11:30pm 21.0 SSE 9 14 1013.5 - 0.0 - - - - - - -
27/11:00pm 21.3 SSE 11 16 1013.1 - 0.0 - - - - - - -
27/10:30pm 21.6 SSE 12 18 1012.9 - 0.0 - - - - - - -
27/10:00pm 22.2 S 11 18 1012.9 - 0.0 - - - - - - -
27/09:30pm 22.7 S 13 21 1012.5 - 0.0 - - - - - - -
27/09:00pm 22.8 S 11 21 1012.0 - 0.0 - - - - - - -
27/08:30pm 22.4 SSW 13 21 1011.7 - 0.0 - - - - - - -
27/08:00pm 22.1 SSW 11 19 1011.4 - 0.0 - - - - - - -
27/07:30pm 22.1 SSW 12 19 1011.2 - 0.0 - - - - - - -
27/07:00pm 22.3 SSW 12 19 1011.0 - 0.0 - - - - - - -
27/06:30pm 22.7 SSW 9 16 1010.9 - 0.0 - - - - - - -
27/06:00pm 22.9 SSW 12 21 1010.6 - 0.0 - - - - - - -
27/05:30pm 23.4 SSW 12 19 1010.5 - 0.0 - - - - - - -
27/05:00pm 23.9 SW 13 19 1010.4 - 0.0 - - - - - - -
27/04:30pm 24.1 SW 15 22 1010.0 - 0.0 - - - - - - -
27/04:00pm 24.3 SW 15 22 1009.8 - 0.0 - - - - - - -
27/03:30pm 24.4 SW 16 25 1009.8 - 0.0 - - - - - - -
27/03:00pm 24.8 SW 16 23 1009.7 - 0.0 - - - - - - -
27/02:30pm 24.4 SW 16 23 1009.9 - 0.0 - - - - - - -
27/02:00pm 24.4 SW 16 23 1009.8 - 0.0 - - - - - - -
27/01:30pm 24.6 SW 15 23 1010.0 - 0.0 - - - - - - -
27/01:00pm 24.2 SW 16 23 1010.0 - 0.0 - - - - - - -
27/12:30pm 24.6 SW 16 23 1010.1 - 0.0 - - - - - - -
27/12:00pm 24.6 SSW 12 18 1009.9 - 0.0 - - - - - - -
27/11:30am 24.4 S 12 17 1010.0 - 0.0 - - - - - - -
27/11:00am 23.6 SSW 13 18 1010.2 - 0.0 - - - - - - -
27/10:30am 23.1 SSW 12 19 1010.1 - 0.0 - - - - - - -
27/10:00am 22.7 SSW 12 17 1009.9 - 0.0 - - - - - - -
27/09:30am 22.4 SSW 11 17 1009.6 - 0.0 - - - - - - -
27/09:00am 21.8 S 12 21 1009.3 - 0.0 - - - - - - -
27/08:30am 21.4 SSW 12 18 1009.0 - 0.0 - - - - - - -
27/08:00am 21.3 SSW 12 17 1008.6 - 0.0 - - - - - - -
27/07:30am 21.2 SSW 13 19 1008.4 - 0.0 - - - - - - -
27/07:00am 21.2 SSW 11 18 1008.0 - 0.0 - - - - - - -
27/06:30am 21.3 SSW 12 17 1007.5 - 0.0 - - - - - - -
27/06:00am 21.7 SSW 10 15 1006.9 - 0.0 - - - - - - -
27/05:30am 21.9 SSW 9 15 1006.4 - 0.0 - - - - - - -
27/05:00am 21.9 SSW 10 17 1006.3 - 0.0 - - - - - - -
27/04:30am 21.7 SSW 10 17 1006.0 - 0.0 - - - - - - -
27/04:00am 21.1 SSW 9 13 1005.8 - 0.0 - - - - - - -
27/03:30am 21.2 SW 12 18 1005.6 - 0.0 - - - - - - -
27/03:00am 21.7 SSW 11 16 1005.3 - 0.0 - - - - - - -
27/02:30am 21.9 SW 11 17 1005.3 - 0.0 - - - - - - -
27/02:00am 22.0 SW 11 16 1005.3 - 0.0 - - - - - - -
27/01:30am 22.1 SW 10 15 1005.3 - 0.0 - - - - - - -
27/01:00am 22.6 SW 7 11 1005.5 - 0.0 - - - - - - -
27/12:30am 22.8 SW 7 10 1005.6 - 0.0 - - - - - - -
27/12:00am 23.3 SW 3 5 1005.4 - 0.0 - - - - - - -
 
Date/Time
WST
Temp

°C
Wind Pressure Rain
since 9am
mm
Weather Cloud Vis
km
Sea
Height
m
Swell
Dir
 
Speed
knots
Gust
knots
hPa Trend Height
m
Period
s
Dir
26/11:30pm 23.8 SSW 4 6 1005.4 - 0.0 - - - - - - -
26/11:00pm 24.1 SSW 5 7 1005.5 - 0.0 - - - - - - -
26/10:30pm 24.3 S 6 9 1005.5 - 0.0 - - - - - - -
26/10:00pm 24.3 SSW 5 7 1005.9 - 0.0 - - - - - - -
26/09:30pm 24.2 SSW 4 9 1005.8 - 0.0 - - - - - - -
26/09:00pm 24.2 SW 6 9 1005.8 - 0.0 - - - - - - -
26/08:30pm 24.2 SSW 4 6 1005.6 - 0.0 - - - - - - -
26/08:00pm 24.2 SSW 5 7 1005.3 - 0.0 - - - - - - -
26/07:30pm 24.8 SW 4 6 1005.0 - 0.0 - - - - - - -
26/07:00pm 25.2 SSW 5 7 1004.7 - 0.0 - - - - - - -
26/06:30pm 25.6 SSW 3 5 1004.7 - 0.0 - - - - - - -
26/06:00pm 25.7 SW 5 8 1004.6 - 0.0 - - - - - - -
26/05:30pm 26.5 WSW 9 13 1004.5 - 0.0 - - - - - - -
26/05:00pm 27.5 SW 5 8 1004.5 - 0.0 - - - - - - -
26/04:30pm 26.8 SW 11 15 1004.6 - 0.0 - - - - - - -
26/04:00pm 28.7 WSW 8 13 1004.5 - 0.0 - - - - - - -
26/03:30pm 29.0 WSW 9 12 1004.5 - 0.0 - - - - - - -
26/03:00pm 28.9 WSW 8 12 1004.6 - 0.0 - - - - - - -
26/02:30pm 28.8 WSW 8 11 1004.9 - 0.0 - - - - - - -
26/02:00pm 26.9 W 9 12 1005.0 - 0.0 - - - - - - -
26/01:30pm 26.8 W 11 14 1005.2 - 0.0 - - - - - - -
26/01:00pm 27.5 W 8 11 1005.2 - 0.0 - - - - - - -
26/12:30pm 27.5 W 10 13 1005.6 - 0.0 - - - - - - -
26/12:00pm 28.6 W 9 11 1005.9 - 0.0 - - - - - - -
26/11:30am 29.9 WNW 6 8 1006.0 - 0.0 - - - - - - -
26/11:00am 30.0 NW 4 5 1006.3 - 0.0 - - - - - - -
26/10:30am 29.9 NNW 4 5 1006.6 - 0.0 - - - - - - -
26/10:00am 30.1 N 4 5 1006.5 - 0.0 - - - - - - -
26/09:30am 30.2 NE 5 7 1006.7 - 0.0 - - - - - - -
26/09:00am 29.1 NE 3 5 1006.9 - 0.0 - - - - - - -
26/08:30am 27.4 E 4 6 1007.0 - 0.0 - - - - - - -
26/08:00am 26.2 ESE 4 6 1006.9 - 0.0 - - - - - - -
26/07:30am 25.0 ESE 3 5 1006.9 - 0.0 - - - - - - -
26/07:00am 24.9 E 4 6 1006.7 - 0.0 - - - - - - -
26/06:30am 24.4 E 4 6 1006.5 - 0.0 - - - - - - -
26/06:00am 24.4 E 3 5 1006.2 - 0.0 - - - - - - -
26/05:30am 24.3 E 4 7 1006.3 - 0.0 - - - - - - -
26/05:00am 24.3 E 3 5 1006.2 - 0.0 - - - - - - -
26/04:30am 24.7 E 4 7 1006.0 - 0.0 - - - - - - -
26/04:00am 24.6 ENE 4 5 1006.1 - 0.0 - - - - - - -
26/03:30am 24.4 ESE 2 3 1006.0 - 0.0 - - - - - - -

Other Formats:

Comma delimited format used in spreadsheet applications
http://www.bom.gov.au/fwo/IDW60701/IDW60701.94605.axf

JavaScript Object Notation format (JSON) in row-major order
http://www.bom.gov.au/fwo/IDW60701/IDW60701.94605.json